createdAt,value
2023-05-05T00:08:09.115Z,101837.03
2023-05-05T00:18:30.568Z,101833.72
2023-05-05T00:28:52.302Z,101820.03
2023-05-05T00:39:14.094Z,101804.81
2023-05-05T00:49:35.914Z,101804.06
2023-05-05T00:59:58.769Z,101800.84
2023-05-05T01:10:32.944Z,101807.81
2023-05-05T01:21:21.082Z,101779.34
2023-05-05T01:31:52.027Z,101773.44
2023-05-05T01:42:15.013Z,101772.72
2023-05-05T01:52:37.576Z,101763.34
2023-05-05T02:02:59.878Z,101768.72
2023-05-05T02:13:23.133Z,101744.63
2023-05-05T02:23:46.268Z,101734.44
2023-05-05T02:34:07.980Z,101746.66
2023-05-05T02:44:31.770Z,101736.53
2023-05-05T02:54:53.415Z,101718.56
2023-05-05T03:05:25.222Z,101731.72
2023-05-05T03:15:48.434Z,101704.31
2023-05-05T03:26:09.786Z,101694.91
2023-05-05T03:36:31.904Z,101699.38
2023-05-05T03:46:53.363Z,101702.06
2023-05-05T03:57:14.731Z,101704.75
2023-05-05T04:07:36.108Z,101720.19
2023-05-05T04:17:57.671Z,101707.94
2023-05-05T04:28:21.614Z,101702.78
2023-05-05T04:38:43.467Z,101734.66
2023-05-05T04:49:05.853Z,101735.59
2023-05-05T04:59:27.258Z,101700.22
2023-05-05T05:09:48.663Z,101685.44
2023-05-05T05:20:10.486Z,101678.31
2023-05-05T05:30:32.858Z,101727.09
2023-05-05T05:40:54.538Z,101728.38
2023-05-05T05:51:15.971Z,101741.13
2023-05-05T06:01:37.364Z,101749.63
2023-05-05T06:11:58.721Z,101811.69
2023-05-05T06:22:20.104Z,101837.50
2023-05-05T06:32:41.515Z,101853.16
2023-05-05T06:43:02.905Z,101891.44
2023-05-05T06:53:24.315Z,101881.56
2023-05-05T07:03:45.769Z,101825.75
2023-05-05T07:14:07.156Z,101788.00
2023-05-05T07:24:28.584Z,101794.97
2023-05-05T07:34:49.915Z,101838.56
2023-05-05T07:45:11.280Z,101835.81
2023-05-05T07:55:32.655Z,101817.81
2023-05-05T08:05:54.503Z,101836.69
2023-05-05T08:16:16.056Z,101846.88
2023-05-05T08:26:37.528Z,101833.09
2023-05-05T08:36:58.948Z,101812.06
2023-05-05T08:47:20.497Z,101840.25
2023-05-05T08:57:52.420Z,101837.16
2023-05-05T09:08:14.167Z,101828.06
2023-05-05T09:18:40.973Z,101826.31
2023-05-05T09:29:03.247Z,101818.34
2023-05-05T09:39:24.623Z,101820.97
2023-05-05T09:49:56.317Z,101818.31
2023-05-05T10:00:17.837Z,101807.72
2023-05-05T10:10:46.434Z,101810.84
2023-05-05T10:21:08.456Z,101822.16
2023-05-05T10:31:33.597Z,101827.31
2023-05-05T10:41:54.981Z,101818.94
2023-05-05T10:52:19.348Z,101812.19
2023-05-05T11:02:41.871Z,101802.16
2023-05-05T11:13:03.398Z,101800.81
2023-05-05T11:23:25.586Z,101772.09
2023-05-05T11:33:47.039Z,101760.31
2023-05-05T11:44:11.581Z,101742.09
2023-05-05T11:54:34.409Z,101745.19
2023-05-05T12:04:56.578Z,101736.00
2023-05-05T12:15:27.437Z,101734.00
2023-05-05T12:25:49.102Z,101729.72
2023-05-05T12:36:10.691Z,101706.75
2023-05-05T12:46:44.141Z,101702.34
2023-05-05T12:57:11.747Z,101688.38
2023-05-05T13:07:33.120Z,101671.38
2023-05-05T13:18:01.557Z,101670.34
2023-05-05T13:28:23.137Z,101648.50
2023-05-05T13:38:44.490Z,101625.94
2023-05-05T13:49:05.876Z,101614.41
2023-05-05T13:59:27.507Z,101605.75
2023-05-05T14:09:48.877Z,101599.41
2023-05-05T14:20:10.557Z,101599.41
2023-05-05T14:30:31.938Z,101594.75
2023-05-05T14:40:53.293Z,101594.53
2023-05-05T14:51:15.928Z,101596.63
2023-05-05T15:01:37.475Z,101593.75
2023-05-05T15:11:58.833Z,101574.41
2023-05-05T15:22:20.334Z,101584.09
2023-05-05T15:32:41.972Z,101592.09
2023-05-05T15:43:03.442Z,101584.69
2023-05-05T15:53:26.670Z,101588.03
2023-05-05T16:03:48.076Z,101616.50
2023-05-05T16:14:09.505Z,101644.28
2023-05-05T16:24:30.953Z,101659.72
2023-05-05T16:34:52.332Z,101672.28
2023-05-05T16:45:13.719Z,101703.88
2023-05-05T16:55:35.134Z,101707.31
2023-05-05T17:05:56.562Z,101699.63
2023-05-05T17:16:18.110Z,101690.34
2023-05-05T17:26:40.463Z,101677.47
2023-05-05T17:37:02.069Z,101655.72
2023-05-05T17:47:25.384Z,101630.09
2023-05-05T17:57:47.399Z,101618.19
2023-05-05T18:08:08.795Z,101608.81
2023-05-05T18:18:30.217Z,101615.56
2023-05-05T18:28:51.839Z,101628.44
2023-05-05T18:39:13.908Z,101632.44
2023-05-05T18:49:35.260Z,101642.94
2023-05-05T18:59:56.749Z,101651.69
2023-05-05T19:10:18.695Z,101642.56
2023-05-05T19:20:42.838Z,101651.31
2023-05-05T19:31:04.204Z,101681.59
2023-05-05T19:41:26.210Z,101708.25
2023-05-05T19:51:49.806Z,101707.94
2023-05-05T20:02:12.158Z,101702.63
2023-05-05T20:12:34.147Z,101707.09
2023-05-05T20:22:55.574Z,101705.47
2023-05-05T20:33:17.024Z,101698.69
2023-05-05T20:43:38.952Z,101685.81
2023-05-05T20:54:00.716Z,101674.53
2023-05-05T21:04:22.080Z,101681.53
2023-05-05T21:14:44.576Z,101679.28
2023-05-05T21:25:13.177Z,101685.53
2023-05-05T21:35:34.629Z,101685.94
2023-05-05T21:45:59.657Z,101682.53
2023-05-05T21:56:21.021Z,101687.00
2023-05-05T22:06:42.391Z,101688.09
2023-05-05T22:17:03.793Z,101705.47
2023-05-05T22:27:25.325Z,101702.28
2023-05-05T22:37:46.770Z,101709.41
2023-05-05T22:48:08.161Z,101714.81
2023-05-05T22:58:29.562Z,101728.88
2023-05-05T23:08:50.920Z,101731.88
2023-05-05T23:19:12.527Z,101721.78
2023-05-05T23:29:33.948Z,101735.91
2023-05-05T23:39:56.137Z,101738.72
2023-05-05T23:50:17.529Z,101748.25
